NFFN/NAN METAR and TAF weather

Enter ICAO airport designator
Station Type Date Time Source
NFFN METAR 2020/03/31 12:00 UTC NOAA

NFFN 311200Z 14003KT 9999 SCT030 BKN050 26/24 Q1011 NOSIG


Station Type Date Time Source
NFFN Decoded METAR 2020/03/31 12:00 UTC NOAA

Nandi, Fiji (NFFN) 17-45S 177-27E 18M
Mar 31, 2020 - 08:00 AM EDT / 2020.03.31 1200 UTC
Wind: from the SE (140 degrees) at 3 MPH (3 KT):0
Visibility: greater than 7 mile(s):0
Sky conditions: mostly cloudy
Temperature: 78 F (26 C)
Dew Point: 75 F (24 C)
Relative Humidity: 88%
Pressure (altimeter): 29.85 in. Hg (1011 hPa)
ob: NFFN 311200Z 14003KT 9999 SCT030 BKN050 26/24 Q1011 NOSIG
cycle: 12

Station Type Date Time Source
NFFN TAF 2020/03/31 12:27 UTC NOAA

TAF TAF NFFN 311124Z 3112/0112 04005KT 9999 -SHRA SCT028 SCT045 BKN100 PROB40
TEMPO 3115/3121 5000 SHRA BKN015
TEMPO 0101/0107 3000 TSRA BKN015 FEW017CB PROB40
TEMPO 0107/0112 5000 SHRA BKN015

Example: see airport list